Time;durP1;ratioP1;P1;durP2;ratioP2;P2;SDS_P1;SDS_P2;PMS_P1;PMS_P2;Temp;Humidity;BMP_temperature;BMP_pressure;BME280_temperature;BME280_humidity;BME280_pressure;Samples;Min_cycle;Max_cycle;Signal;HPM_P1;HPM_P2
2023/08/08 00:04:44;;;;;;;5.95;2.08;;;;;;;13.48;65.24;100582.88;15551257;28;20173;-50
2023/08/08 00:12:18;;;;;;;8.00;2.42;;;;;;;13.51;64.80;100568.09;15588597;22;20041;-50
2023/08/08 00:19:51;;;;;;;4.88;1.85;;;;;;;13.61;64.69;100565.63;15608798;28;20045;-47
2023/08/08 00:27:25;;;;;;;9.48;2.33;;;;;;;13.37;65.11;100556.69;15609952;28;20060;-48
2023/08/08 00:34:58;;;;;;;7.32;2.20;;;;;;;13.20;65.31;100563.81;15592095;28;20041;-47
2023/08/08 00:42:33;;;;;;;5.65;2.10;;;;;;;13.26;64.90;100573.69;15591591;28;20094;-48
2023/08/08 00:50:09;;;;;;;6.70;2.05;;;;;;;13.20;65.16;100586.19;15590865;28;20049;-49
2023/08/08 00:57:44;;;;;;;7.35;2.10;;;;;;;13.14;64.78;100586.28;15591373;28;20038;-48
2023/08/08 01:05:17;;;;;;;5.97;1.83;;;;;;;13.22;64.83;100586.00;15616241;28;20065;-50
2023/08/08 01:12:56;;;;;;;4.45;1.77;;;;;;;12.98;65.22;100583.22;15581499;28;20042;-47
2023/08/08 01:20:30;;;;;;;7.53;1.95;;;;;;;12.95;65.43;100574.75;15558472;28;20139;-48
2023/08/08 01:28:06;;;;;;;5.90;1.90;;;;;;;12.99;64.79;100570.56;15556544;28;20049;-50
2023/08/08 01:35:41;;;;;;;5.60;1.70;;;;;;;12.72;65.01;100564.72;15555126;28;20121;-48
2023/08/08 01:43:18;;;;;;;4.32;1.80;;;;;;;12.96;63.85;100565.63;15538756;28;20060;-48
2023/08/08 01:50:52;;;;;;;5.00;1.63;;;;;;;12.97;64.01;100572.66;15538824;28;20053;-49
2023/08/08 01:58:39;;;;;;;8.38;1.98;;;;;;;12.75;64.13;100558.88;15540043;28;20205;-50
2023/08/08 02:06:13;;;;;;;7.22;1.90;;;;;;;12.62;64.30;100546.41;15554199;28;20049;-52
2023/08/08 02:13:49;;;;;;;4.25;1.95;;;;;;;13.03;63.87;100544.78;15580047;28;20041;-55
2023/08/08 02:21:23;;;;;;;4.80;1.73;;;;;;;12.91;64.43;100541.25;15598786;28;20053;-50
2023/08/08 02:28:59;;;;;;;6.63;1.80;;;;;;;12.56;65.84;100527.69;15598336;28;20065;-51
2023/08/08 02:36:33;;;;;;;3.97;1.98;;;;;;;12.94;65.05;100522.75;15596802;28;20065;-53
2023/08/08 02:44:08;;;;;;;6.95;1.85;;;;;;;12.82;65.83;100531.84;15578366;28;20063;-49
2023/08/08 02:51:41;;;;;;;5.53;1.95;;;;;;;12.54;67.20;100538.66;15596237;28;20056;-54
2023/08/08 02:59:17;;;;;;;6.30;2.30;;;;;;;13.00;66.19;100531.78;15594999;28;20088;-49
2023/08/08 03:06:50;;;;;;;7.10;2.17;;;;;;;12.56;67.53;100539.25;15612029;28;20118;-50
2023/08/08 03:14:27;;;;;;;7.88;2.33;;;;;;;12.63;67.62;100531.09;15595678;28;20048;-53
2023/08/08 03:22:02;;;;;;;7.32;2.20;;;;;;;12.67;67.72;100541.16;15594617;28;20053;-49
2023/08/08 03:29:36;;;;;;;5.38;2.30;;;;;;;12.82;67.24;100519.19;15593494;28;20072;-51
2023/08/08 03:37:09;;;;;;;4.75;2.28;;;;;;;13.00;67.06;100526.38;15577640;28;20050;-50
2023/08/08 03:44:45;;;;;;;5.03;2.15;;;;;;;12.64;68.42;100540.81;15593775;28;20037;-49
2023/08/08 03:52:18;;;;;;;7.22;2.28;;;;;;;12.82;67.88;100526.47;15576909;28;20529;-50
2023/08/08 03:59:53;;;;;;;5.63;2.50;;;;;;;13.06;67.49;100525.47;15577329;28;20046;-55
2023/08/08 04:07:26;;;;;;;9.35;2.60;;;;;;;12.93;68.07;100539.97;15593555;28;20465;-51
2023/08/08 04:15:01;;;;;;;7.32;2.15;;;;;;;13.12;68.08;100538.00;15554649;28;20046;-47
2023/08/08 04:22:35;;;;;;;8.23;2.40;;;;;;;13.18;67.80;100534.38;15547605;28;20041;-53
2023/08/08 04:30:10;;;;;;;4.93;2.08;;;;;;;13.10;67.89;100531.19;15547029;28;20175;-52
2023/08/08 04:37:43;;;;;;;6.70;2.28;;;;;;;13.45;66.68;100526.72;15550586;28;20423;-47
2023/08/08 04:45:21;;;;;;;5.22;2.15;;;;;;;13.12;68.33;100529.94;15559745;28;20042;-53
2023/08/08 04:53:13;;;;;;;5.80;2.20;;;;;;;13.45;67.34;100528.59;15559682;28;20133;-53
2023/08/08 05:00:48;;;;;;;4.38;1.88;;;;;;;13.72;66.77;100524.34;15559165;28;20062;-52
2023/08/08 05:08:21;;;;;;;4.72;1.90;;;;;;;13.51;67.09;100528.47;15558387;28;20052;-52
2023/08/08 05:15:56;;;;;;;4.75;1.70;;;;;;;14.00;66.10;100526.31;15585124;28;20410;-52
2023/08/08 05:23:29;;;;;;;4.68;1.80;;;;;;;14.10;65.80;100523.00;15618691;28;20053;-53
2023/08/08 05:31:04;;;;;;;5.65;2.05;;;;;;;14.17;65.70;100518.25;15618042;28;20060;-54
2023/08/08 05:38:37;;;;;;;5.13;1.90;;;;;;;14.08;66.28;100525.09;15618192;28;20056;-52
2023/08/08 05:46:11;;;;;;;8.82;1.95;;;;;;;14.43;65.43;100519.59;15618715;28;20386;-54
2023/08/08 05:53:44;;;;;;;3.72;2.00;;;;;;;14.86;65.02;100530.94;15617789;28;20045;-52
2023/08/08 06:01:19;;;;;;;;;;;;;;;14.65;65.82;100525.19;15617261;28;20053;-50
2023/08/08 06:08:52;;;;;;;4.07;2.03;;;;;;;14.61;64.89;100525.91;15582497;28;20314;-53
2023/08/08 06:16:26;;;;;;;;;;;;;;;14.87;65.16;100521.75;15567542;28;20056;-54
2023/08/08 06:23:59;;;;;;;5.65;2.10;;;;;;;14.57;65.53;100530.16;15554740;28;20606;-52
2023/08/08 06:31:34;;;;;;;8.20;2.47;;;;;;;14.12;66.76;100528.97;15552446;28;20057;-51
2023/08/08 06:39:07;;;;;;;5.95;2.25;;;;;;;14.74;65.47;100534.53;15554266;28;20054;-50
2023/08/08 06:46:41;;;;;;;5.60;2.00;;;;;;;14.84;64.69;100541.19;15553856;28;20048;-51
2023/08/08 06:54:14;;;;;;;3.70;1.92;;;;;;;14.70;65.30;100536.06;15552781;28;20498;-49
2023/08/08 07:01:49;;;;;;;6.93;1.90;;;;;;;14.93;64.57;100535.13;15551829;28;20480;-51
2023/08/08 07:09:24;;;;;;;5.13;2.03;;;;;;;15.70;63.10;100529.06;15551741;28;20092;-50
2023/08/08 07:16:59;;;;;;;3.58;2.08;;;;;;;15.68;63.27;100530.38;15605210;28;20061;-49
2023/08/08 07:24:31;;;;;;;5.85;2.05;;;;;;;15.13;64.45;100542.75;15594706;28;20053;-50
2023/08/08 07:32:07;;;;;;;2.92;2.00;;;;;;;15.27;63.90;100544.06;15612643;28;20152;-51
2023/08/08 07:39:40;;;;;;;5.32;2.20;;;;;;;15.55;63.67;100537.75;15611733;28;20095;-51
2023/08/08 07:47:15;;;;;;;3.67;1.80;;;;;;;16.12;62.91;100538.53;15611058;28;20107;-49
2023/08/08 07:54:48;;;;;;;3.80;2.33;;;;;;;15.87;63.53;100529.03;15610352;28;20044;-51
2023/08/08 08:02:22;;;;;;;4.28;1.90;;;;;;;16.37;62.75;100532.59;15610608;28;20061;-54
2023/08/08 08:09:55;;;;;;;5.88;2.13;;;;;;;16.39;61.87;100528.56;15593016;28;20047;-53
2023/08/08 08:17:30;;;;;;;;;;;;;;;16.45;61.37;100518.59;15560718;28;20052;-53
2023/08/08 08:25:02;;;;;;;4.38;1.65;;;;;;;16.22;60.64;100523.22;15561554;28;19964;-54
2023/08/08 08:32:38;;;;;;;4.60;1.85;;;;;;;16.70;59.65;100512.66;15559580;28;20482;-52
2023/08/08 08:40:12;;;;;;;4.95;1.70;;;;;;;17.04;60.00;100515.97;15545106;28;20504;-51
2023/08/08 08:47:48;;;;;;;4.60;1.80;;;;;;;17.11;59.01;100510.31;15621575;28;20100;-50
2023/08/08 08:55:22;;;;;;;7.93;1.90;;;;;;;16.41;60.76;100518.28;15620873;28;20107;-54
2023/08/08 09:02:59;;;;;;;4.00;1.98;;;;;;;17.06;58.88;100519.22;15602176;28;20107;-49
2023/08/08 09:10:35;;;;;;;3.72;1.52;;;;;;;18.42;55.58;100508.59;15619950;28;20069;-52
2023/08/08 09:18:09;;;;;;;6.00;1.80;;;;;;;18.07;56.44;100494.63;15620618;28;20107;-52
2023/08/08 09:25:43;;;;;;;4.45;1.73;;;;;;;19.75;54.85;100482.22;15601139;28;20045;-51
2023/08/08 09:33:18;;;;;;;6.20;1.90;;;;;;;18.85;53.09;100486.41;15600902;28;20264;-50
2023/08/08 09:40:52;;;;;;;7.07;1.73;;;;;;;19.15;53.30;100486.66;15618353;28;20151;-53
2023/08/08 09:48:32;;;;;;;3.75;1.83;;;;;;;19.02;53.26;100469.00;15600754;28;20056;-49
2023/08/08 09:56:06;;;;;;;2.42;1.50;;;;;;;17.83;55.89;100471.72;15618329;28;20061;-53
2023/08/08 10:03:42;;;;;;;4.60;2.13;;;;;;;18.59;51.54;100455.63;15599730;28;20427;-48
2023/08/08 10:11:16;;;;;;;2.67;1.55;;;;;;;19.23;51.19;100454.28;15610312;28;20053;-49
2023/08/08 10:18:57;;;;;;;3.88;1.70;;;;;;;18.87;50.40;100442.63;15554977;28;20434;-52
2023/08/08 10:26:30;;;;;;;5.00;2.05;;;;;;;16.41;64.08;100484.97;15552877;28;20045;-54
2023/08/08 10:34:06;;;;;;;6.88;2.78;;;;;;;16.38;69.65;100488.19;15553158;28;20491;-49
2023/08/08 10:41:46;;;;;;;4.97;3.05;;;;;;;16.31;70.76;100482.97;15552893;28;20068;-48
2023/08/08 10:49:20;;;;;;;8.68;3.60;;;;;;;16.06;72.03;100470.78;15553090;28;20133;-47
2023/08/08 10:56:56;;;;;;;8.02;3.40;;;;;;;17.68;71.73;100450.72;15551610;28;20531;-52
2023/08/08 11:04:32;;;;;;;5.65;3.13;;;;;;;17.72;69.37;100454.56;15553236;28;20132;-50
2023/08/08 11:12:13;;;;;;;8.10;3.75;;;;;;;17.48;70.81;100453.31;15564414;28;20045;-53
2023/08/08 11:19:48;;;;;;;8.82;3.10;;;;;;;16.15;72.71;100511.78;15612544;28;20712;-49
2023/08/08 11:27:21;;;;;;;6.68;3.90;;;;;;;14.87;76.00;100524.47;15594884;28;20045;-49
2023/08/08 11:34:55;;;;;;;;;;;;;;;14.72;76.20;100495.28;15594438;28;20167;-51
2023/08/08 11:42:29;;;;;;;6.38;4.18;;;;;;;15.53;75.58;100474.16;15612956;28;19925;-52
2023/08/08 11:50:07;;;;;;;5.35;3.08;;;;;;;18.00;69.70;100455.22;15611225;28;20347;-51
2023/08/08 11:57:41;;;;;;;4.18;2.17;;;;;;;17.97;68.99;100448.44;15611308;28;20482;-51
2023/08/08 12:05:21;;;;;;;4.70;2.17;;;;;;;19.17;67.57;100443.69;15610209;28;20129;-55
2023/08/08 12:12:57;;;;;;;5.20;2.30;;;;;;;20.45;63.28;100446.72;15572616;28;20053;-58
2023/08/08 12:20:32;;;;;;;3.55;2.20;;;;;;;17.34;65.44;100482.81;15547317;28;20069;-59
2023/08/08 12:28:06;;;;;;;4.60;2.45;;;;;;;16.54;68.55;100460.19;15548532;28;20056;-59
2023/08/08 12:35:41;;;;;;;2.92;1.85;;;;;;;18.89;65.33;100437.75;15547222;28;20048;-59
2023/08/08 12:43:17;;;;;;;4.97;1.90;;;;;;;19.80;59.99;100427.72;15547040;28;20077;-58
2023/08/08 12:50:51;;;;;;;3.58;1.60;;;;;;;19.38;57.31;100424.31;15547009;28;20066;-59
2023/08/08 12:58:25;;;;;;;3.13;1.80;;;;;;;20.38;51.76;100419.78;15551407;28;20138;-58
2023/08/08 13:05:59;;;;;;;4.80;1.70;;;;;;;20.50;49.62;100412.09;15559300;28;20407;-59
2023/08/08 13:13:32;;;;;;;5.70;1.92;;;;;;;21.32;50.47;100419.56;15584440;28;20060;-59
2023/08/08 13:21:07;;;;;;;6.00;1.70;;;;;;;20.41;50.77;100407.50;15619335;28;20139;-59
2023/08/08 13:28:40;;;;;;;4.95;1.50;;;;;;;20.52;47.90;100400.91;15618855;28;20073;-59
2023/08/08 13:36:14;;;;;;;3.83;1.50;;;;;;;18.65;51.01;100452.91;15618878;28;20042;-56
2023/08/08 13:43:48;;;;;;;2.15;1.10;;;;;;;17.81;52.63;100454.88;15618505;28;20053;-56
2023/08/08 13:51:24;;;;;;;2.60;1.40;;;;;;;16.91;54.72;100460.25;15617833;28;20103;-57
2023/08/08 13:58:57;;;;;;;3.97;1.45;;;;;;;17.68;54.83;100452.63;15599714;28;20045;-55
2023/08/08 14:06:31;;;;;;;2.65;1.30;;;;;;;17.59;53.84;100450.41;15616698;28;20053;-52
2023/08/08 14:14:09;;;;;;;3.05;1.70;;;;;;;18.47;50.43;100430.63;15566033;28;20050;-57
2023/08/08 14:21:44;;;;;;;3.40;1.80;;;;;;;19.31;50.24;100433.88;15554408;28;20155;-54
2023/08/08 14:29:17;;;;;;;4.07;1.48;;;;;;;19.81;47.43;100434.81;15554980;28;20042;-55
2023/08/08 14:36:51;;;;;;;4.07;1.70;;;;;;;19.68;46.37;100413.63;15554272;28;20144;-56
2023/08/08 14:44:24;;;;;;;4.40;1.80;;;;;;;19.68;48.21;100425.34;15552940;28;20069;-57
2023/08/08 14:51:58;;;;;;;5.07;2.22;;;;;;;20.10;47.58;100416.69;15552793;28;20499;-58
2023/08/08 14:59:31;;;;;;;4.05;2.15;;;;;;;20.08;48.75;100421.59;15551644;28;20069;-58
2023/08/08 15:07:06;;;;;;;7.05;2.13;;;;;;;19.76;50.49;100427.47;15551193;28;20052;-57
2023/08/08 15:14:39;;;;;;;5.88;2.22;;;;;;;19.33;53.97;100437.13;15586638;28;20064;-58
2023/08/08 15:22:14;;;;;;;3.15;2.10;;;;;;;19.65;52.85;100422.34;15612706;28;20499;-58
2023/08/08 15:29:47;;;;;;;5.50;2.30;;;;;;;19.72;53.16;100434.56;15577957;28;20387;-58
2023/08/08 15:37:21;;;;;;;4.07;2.13;;;;;;;19.68;53.12;100428.06;15594194;28;20049;-58
2023/08/08 15:44:55;;;;;;;8.02;2.20;;;;;;;19.26;54.46;100494.56;15611575;28;20041;-56
2023/08/08 15:52:29;;;;;;;3.92;1.80;;;;;;;18.75;57.78;100486.41;15611294;28;20179;-55
2023/08/08 16:00:03;;;;;;;3.20;1.08;;;;;;;18.48;59.19;100469.47;15592375;28;20045;-56
2023/08/08 16:07:46;;;;;;;3.13;1.20;;;;;;;18.65;57.94;100463.78;15610598;28;20132;-56
2023/08/08 16:15:19;;;;;;;3.58;1.20;;;;;;;18.11;59.33;100462.31;15570161;28;20045;-56
2023/08/08 16:22:54;;;;;;;5.20;1.40;;;;;;;17.65;61.62;100532.69;15549168;28;20046;-58
2023/08/08 16:30:27;;;;;;;6.07;1.88;;;;;;;15.75;71.03;100585.13;15548157;28;20100;-58
2023/08/08 16:38:02;;;;;;;6.95;2.53;;;;;;;15.47;74.90;100564.38;15558223;28;20140;-57
2023/08/08 16:45:37;;;;;;;3.90;1.92;;;;;;;16.12;74.45;100550.19;15559883;28;20100;-57
2023/08/08 16:53:12;;;;;;;;;;;;;;;15.41;73.10;100546.44;15560063;28;20188;-55
2023/08/08 17:00:45;;;;;;;4.18;1.63;;;;;;;15.73;72.07;100561.03;15559911;28;19922;-55
2023/08/08 17:08:19;;;;;;;;;;;;;;;15.96;70.88;100549.19;15560252;28;20046;-56
2023/08/08 17:15:52;;;;;;;3.35;1.48;;;;;;;15.84;70.39;100550.34;15601567;28;19921;-58
2023/08/08 17:23:26;;;;;;;2.40;1.40;;;;;;;15.90;71.04;100561.00;15619485;28;20054;-58
2023/08/08 17:31:00;;;;;;;3.97;1.10;;;;;;;15.34;71.13;100559.31;15618678;28;20067;-55
2023/08/08 17:38:34;;;;;;;5.45;1.50;;;;;;;15.50;71.28;100553.09;15618573;28;20128;-57
2023/08/08 17:46:07;;;;;;;3.42;1.23;;;;;;;15.86;70.11;100548.22;15600517;28;20045;-55
2023/08/08 17:53:41;;;;;;;;;;;;;;;15.39;72.14;100556.69;15618306;28;20441;-56
2023/08/08 18:01:15;;;;;;;3.38;1.40;;;;;;;15.51;72.10;100563.66;15599890;28;19928;-57
2023/08/08 18:08:49;;;;;;;;;;;;;;;16.10;70.38;100562.34;15616971;28;20045;-57
2023/08/08 18:16:22;;;;;;;6.03;1.40;;;;;;;16.20;69.85;100568.72;15685506;22;19963;-52
2023/08/08 18:23:56;;;;;;;3.20;1.30;;;;;;;16.36;68.87;100571.59;15683987;28;20068;-51
2023/08/08 18:31:29;;;;;;;4.90;1.45;;;;;;;16.68;67.35;100575.22;15682547;28;20072;-50
2023/08/08 18:39:05;;;;;;;4.00;1.42;;;;;;;16.70;67.22;100585.81;15666697;28;20505;-52
2023/08/08 18:46:39;;;;;;;2.75;1.23;;;;;;;16.70;67.32;100594.78;15666288;28;20095;-51
2023/08/08 18:54:16;;;;;;;3.42;1.40;;;;;;;16.42;65.51;100595.00;15663855;28;20055;-52
2023/08/08 19:01:49;;;;;;;4.80;1.60;;;;;;;16.67;64.56;100603.41;15663509;28;20041;-53
2023/08/08 19:09:23;;;;;;;;;;;;;;;16.30;65.49;100605.94;15681510;28;20067;-53
2023/08/08 19:16:56;;;;;;;5.30;1.30;;;;;;;15.82;67.45;100600.16;15626438;28;19967;-53
2023/08/08 19:24:30;;;;;;;5.15;1.30;;;;;;;16.04;66.52;100602.91;15617088;28;20056;-52
2023/08/08 19:32:04;;;;;;;5.38;1.88;;;;;;;15.67;67.91;100599.91;15616196;28;20132;-50
2023/08/08 19:39:39;;;;;;;4.13;2.00;;;;;;;15.83;68.06;100611.78;15618211;28;20045;-52
2023/08/08 19:47:12;;;;;;;3.08;2.10;;;;;;;15.73;68.03;100607.03;15660702;28;20045;-50
2023/08/08 19:54:46;;;;;;;4.57;2.22;;;;;;;15.44;68.87;100600.06;15678037;28;20119;-51
2023/08/08 20:02:20;;;;;;;4.13;2.20;;;;;;;15.66;68.10;100586.63;15678249;28;20053;-52
2023/08/08 20:09:54;;;;;;;4.93;2.50;;;;;;;15.49;68.84;100592.84;15678296;28;20049;-50
2023/08/08 20:17:32;;;;;;;3.05;2.20;;;;;;;15.65;68.35;100599.34;15677767;28;20585;-52
2023/08/08 20:25:07;;;;;;;4.75;2.10;;;;;;;15.72;68.17;100597.28;15659784;28;20470;-54
2023/08/08 20:32:40;;;;;;;4.47;2.30;;;;;;;15.67;68.47;100608.03;15677881;28;20041;-50
2023/08/08 20:40:16;;;;;;;4.40;2.40;;;;;;;15.51;68.59;100600.69;15660100;28;20730;-49
2023/08/08 20:47:49;;;;;;;6.40;2.28;;;;;;;15.53;68.46;100612.13;15674681;28;20067;-50
2023/08/08 20:55:24;;;;;;;3.88;2.50;;;;;;;15.37;68.82;100619.13;15676192;28;20505;-49
2023/08/08 21:02:57;;;;;;;5.82;2.50;;;;;;;15.07;69.95;100632.13;15674849;28;20045;-50
2023/08/08 21:10:32;;;;;;;4.82;2.50;;;;;;;14.67;71.41;100638.38;15675825;28;20532;-53
2023/08/08 21:18:06;;;;;;;6.10;2.75;;;;;;;14.63;71.65;100645.31;15677490;28;20044;-53
2023/08/08 21:25:40;;;;;;;3.60;2.33;;;;;;;14.60;72.18;100660.16;15653247;28;20049;-51
2023/08/08 21:33:13;;;;;;;2.83;2.08;;;;;;;14.53;72.43;100675.66;15686572;28;20477;-54
2023/08/08 21:40:48;;;;;;;6.13;2.30;;;;;;;14.71;72.20;100697.09;15685257;28;20072;-53
2023/08/08 21:48:22;;;;;;;3.00;1.80;;;;;;;14.20;73.41;100690.56;15667659;28;20080;-51
2023/08/08 21:55:57;;;;;;;3.00;1.83;;;;;;;14.85;71.46;100699.53;15684944;28;20056;-51
2023/08/08 22:03:30;;;;;;;4.53;1.83;;;;;;;15.25;69.81;100684.13;15683920;28;20060;-51
2023/08/08 22:11:04;;;;;;;3.15;1.95;;;;;;;15.49;68.72;100686.69;15660771;28;20064;-55
2023/08/08 22:18:56;;;;;;;6.50;2.00;;;;;;;15.20;68.44;100681.31;15621648;28;20056;-52
2023/08/08 22:26:31;;;;;;;2.38;1.58;;;;;;;15.23;68.38;100688.13;15621310;28;20053;-54
2023/08/08 22:34:06;;;;;;;6.57;2.25;;;;;;;15.09;68.73;100684.88;15620188;28;20050;-54
2023/08/08 22:41:40;;;;;;;4.22;1.95;;;;;;;15.31;68.29;100685.03;15618767;28;20068;-51
2023/08/08 22:49:14;;;;;;;4.32;1.65;;;;;;;15.37;67.12;100688.63;15621584;28;20659;-50
2023/08/08 22:56:48;;;;;;;4.77;1.50;;;;;;;14.75;68.40;100690.16;15619651;28;20103;-53
2023/08/08 23:04:23;;;;;;;5.55;1.70;;;;;;;14.75;69.05;100692.06;15617663;28;20344;-55
2023/08/08 23:12:00;;;;;;;4.97;1.65;;;;;;;14.77;69.12;100684.53;15631436;28;20136;-51
2023/08/08 23:19:32;;;;;;;3.45;1.40;;;;;;;15.03;68.32;100685.84;15679828;28;20136;-50
2023/08/08 23:27:07;;;;;;;4.10;1.90;;;;;;;15.15;68.03;100677.69;15661782;28;20048;-49
2023/08/08 23:34:40;;;;;;;6.95;2.13;;;;;;;14.95;68.56;100675.41;15661469;28;20084;-50
2023/08/08 23:42:15;;;;;;;6.03;1.58;;;;;;;14.89;67.72;100658.28;15678095;28;20049;-52
2023/08/08 23:49:48;;;;;;;3.65;1.60;;;;;;;14.80;68.05;100660.56;15643852;28;20137;-49
2023/08/08 23:57:22;;;;;;;4.00;1.63;;;;;;;14.67;68.14;100668.94;15660677;28;20041;-51
